createdAt,value
2017-04-11T00:00:53.451Z,0
2017-04-11T00:01:53.983Z,0
2017-04-11T00:02:54.517Z,0
2017-04-11T00:03:55.045Z,0
2017-04-11T00:04:55.575Z,0
2017-04-11T00:05:56.104Z,0
2017-04-11T00:06:56.633Z,0
2017-04-11T00:07:57.163Z,0
2017-04-11T00:08:57.697Z,0
2017-04-11T00:09:58.225Z,0
2017-04-11T00:10:58.908Z,0
2017-04-11T00:11:59.288Z,0
2017-04-11T00:12:59.820Z,0
2017-04-11T00:14:00.356Z,0
2017-04-11T00:15:00.884Z,0
2017-04-11T00:16:01.421Z,0
2017-04-11T00:17:03.752Z,0
2017-04-11T00:18:02.492Z,0
2017-04-11T00:19:03.025Z,0
2017-04-11T00:20:03.575Z,0
2017-04-11T00:21:04.105Z,0
2017-04-11T00:22:04.639Z,0
2017-04-11T00:23:05.155Z,0
2017-04-11T00:24:05.686Z,0
2017-04-11T00:25:06.219Z,0
2017-04-11T00:26:06.753Z,0
2017-04-11T00:27:07.282Z,0
2017-04-11T00:28:07.811Z,0
2017-04-11T00:29:08.342Z,0
2017-04-11T00:30:08.874Z,0
2017-04-11T00:31:09.400Z,0
2017-04-11T00:32:09.935Z,0
2017-04-11T00:33:10.462Z,0
2017-04-11T00:34:10.992Z,0
2017-04-11T00:35:11.526Z,0
2017-04-11T00:36:12.056Z,0
2017-04-11T00:37:12.584Z,0
2017-04-11T00:38:13.114Z,0
2017-04-11T00:39:13.642Z,0
2017-04-11T00:40:14.174Z,0
2017-04-11T00:41:14.705Z,0
2017-04-11T00:42:15.239Z,0
2017-04-11T00:43:15.773Z,0
2017-04-11T00:44:16.306Z,0
2017-04-11T00:45:16.829Z,0
2017-04-11T00:46:17.362Z,0
2017-04-11T00:47:17.891Z,0
2017-04-11T00:48:18.422Z,0
2017-04-11T00:49:19.108Z,0
2017-04-11T00:50:19.480Z,0
2017-04-11T00:51:20.161Z,0
2017-04-11T00:52:20.541Z,0
2017-04-11T00:53:21.071Z,0
2017-04-11T00:54:21.748Z,0
2017-04-11T00:55:22.132Z,0
2017-04-11T00:56:22.666Z,0
2017-04-11T00:57:23.200Z,0
2017-04-11T00:58:23.737Z,0
2017-04-11T00:59:24.271Z,0
2017-04-11T01:00:24.808Z,0
2017-04-11T01:01:25.492Z,0
2017-04-11T01:02:25.868Z,0
2017-04-11T01:03:26.553Z,0
2017-04-11T01:04:26.934Z,0
2017-04-11T01:05:27.470Z,0
2017-04-11T01:06:29.196Z,0
2017-04-11T01:07:28.677Z,0
2017-04-11T01:08:29.060Z,0
2017-04-11T01:09:29.589Z,0
2017-04-11T01:10:30.124Z,0
2017-04-11T01:11:30.649Z,0
2017-04-11T01:12:31.184Z,0
2017-04-11T01:13:31.712Z,0
2017-04-11T01:14:32.245Z,0
2017-04-11T01:15:32.776Z,0
2017-04-11T01:16:33.311Z,0
2017-04-11T01:17:34.090Z,0
2017-04-11T01:18:34.371Z,0
2017-04-11T01:19:35.053Z,0
2017-04-11T01:20:35.437Z,0
2017-04-11T01:21:35.965Z,0
2017-04-11T01:22:36.493Z,0
2017-04-11T01:23:37.024Z,0
2017-04-11T01:24:37.581Z,0
2017-04-11T01:25:38.082Z,0
2017-04-11T01:26:38.617Z,0
2017-04-11T01:27:39.145Z,0
2017-04-11T01:28:39.677Z,0
2017-04-11T01:29:40.208Z,0
2017-04-11T01:30:40.743Z,0
2017-04-11T01:31:41.274Z,0
2017-04-11T01:32:41.803Z,0
2017-04-11T01:33:42.334Z,0
2017-04-11T01:34:42.865Z,0
2017-04-11T01:35:43.397Z,0
2017-04-11T01:36:43.929Z,0
2017-04-11T01:37:44.464Z,0
2017-04-11T01:38:45.002Z,0
2017-04-11T01:39:45.683Z,0
2017-04-11T01:40:46.070Z,0
2017-04-11T01:41:46.598Z,0
2017-04-11T01:42:47.132Z,0
2017-04-11T01:43:47.665Z,0
2017-04-11T01:44:48.195Z,0
2017-04-11T01:45:48.725Z,0
2017-04-11T01:46:49.258Z,0
2017-04-11T01:47:49.825Z,0
2017-04-11T01:48:50.322Z,0
2017-04-11T01:49:50.850Z,0
2017-04-11T01:50:51.385Z,0
2017-04-11T01:51:51.915Z,0
2017-04-11T01:52:52.596Z,0
2017-04-11T01:53:52.975Z,0
2017-04-11T01:54:53.512Z,0
2017-04-11T01:55:54.038Z,0
2017-04-11T01:56:54.574Z,0
2017-04-11T01:57:55.101Z,0
2017-04-11T01:58:55.631Z,0
2017-04-11T01:59:56.164Z,0
2017-04-11T02:00:56.707Z,0
2017-04-11T02:01:57.224Z,0
2017-04-11T02:02:57.758Z,0
2017-04-11T02:03:58.299Z,0
2017-04-11T02:04:58.827Z,0
2017-04-11T02:05:59.354Z,0
2017-04-11T02:06:59.888Z,0
2017-04-11T02:08:00.414Z,0
2017-04-11T02:09:00.952Z,0
2017-04-11T02:10:01.482Z,0
2017-04-11T02:11:02.013Z,0
2017-04-11T02:12:02.698Z,0
2017-04-11T02:13:03.229Z,0
2017-04-11T02:14:03.608Z,0
2017-04-11T02:15:04.140Z,0
2017-04-11T02:16:04.669Z,0
2017-04-11T02:17:05.204Z,0
2017-04-11T02:18:05.735Z,0
2017-04-11T02:19:06.265Z,0
2017-04-11T02:20:06.798Z,0
2017-04-11T02:21:07.339Z,0
2017-04-11T02:22:07.870Z,0
2017-04-11T02:23:08.404Z,0
2017-04-11T02:24:09.113Z,0
2017-04-11T02:25:09.472Z,0
2017-04-11T02:26:10.008Z,0
2017-04-11T02:27:10.532Z,0
2017-04-11T02:28:11.063Z,0
2017-04-11T02:29:11.595Z,0
2017-04-11T02:30:12.136Z,0
2017-04-11T02:31:12.660Z,0
2017-04-11T02:32:13.195Z,0
2017-04-11T02:33:13.725Z,0
2017-04-11T02:34:14.246Z,0
2017-04-11T02:35:14.777Z,0
2017-04-11T02:36:15.312Z,0
2017-04-11T02:37:15.991Z,0
2017-04-11T02:38:16.524Z,0
2017-04-11T02:39:16.906Z,0
2017-04-11T02:40:17.628Z,0
2017-04-11T02:41:17.970Z,0
2017-04-11T02:42:18.498Z,0
2017-04-11T02:43:19.036Z,0
2017-04-11T02:44:19.562Z,0
2017-04-11T02:45:20.096Z,0
2017-04-11T02:46:20.648Z,0
2017-04-11T02:47:21.155Z,0
2017-04-11T02:48:21.684Z,0
2017-04-11T02:49:22.222Z,0
2017-04-11T02:50:22.746Z,0
2017-04-11T02:51:23.280Z,0
2017-04-11T02:52:23.813Z,0
2017-04-11T02:53:24.345Z,0
2017-04-11T02:54:25.024Z,0
2017-04-11T02:55:25.401Z,0
2017-04-11T02:56:25.931Z,0
2017-04-11T02:57:26.468Z,0
2017-04-11T02:58:26.999Z,0
2017-04-11T02:59:27.531Z,0
2017-04-11T03:00:28.098Z,0
2017-04-11T03:01:28.602Z,0
2017-04-11T03:02:29.137Z,0
2017-04-11T03:03:29.670Z,0
2017-04-11T03:04:30.350Z,0
2017-04-11T03:05:30.736Z,0
2017-04-11T03:06:31.264Z,0
2017-04-11T03:07:31.793Z,0
2017-04-11T03:08:32.475Z,0
2017-04-11T03:09:33.003Z,0
2017-04-11T03:10:33.391Z,0
2017-04-11T03:11:33.916Z,0
2017-04-11T03:12:34.448Z,0
2017-04-11T03:13:34.976Z,0
2017-04-11T03:14:35.509Z,0
2017-04-11T03:15:36.039Z,0
2017-04-11T03:16:36.567Z,0
2017-04-11T03:17:37.251Z,0
2017-04-11T03:18:37.627Z,0
2017-04-11T03:19:38.160Z,0
2017-04-11T03:20:38.842Z,0
2017-04-11T03:21:39.225Z,0
2017-04-11T03:22:39.758Z,0
2017-04-11T03:23:40.289Z,0
2017-04-11T03:24:40.820Z,0
2017-04-11T03:25:41.350Z,0
2017-04-11T03:26:41.886Z,0
2017-04-11T03:27:42.417Z,0
2017-04-11T03:28:42.945Z,0
2017-04-11T03:29:43.480Z,0
2017-04-11T03:30:44.009Z,0
2017-04-11T03:31:44.534Z,0
2017-04-11T03:32:45.106Z,0
2017-04-11T03:33:45.599Z,0
2017-04-11T03:34:46.128Z,0
2017-04-11T03:35:46.660Z,0
2017-04-11T03:36:47.188Z,0
2017-04-11T03:37:47.727Z,0
2017-04-11T03:38:48.280Z,0
2017-04-11T03:39:48.785Z,0
2017-04-11T03:40:49.467Z,0
2017-04-11T03:41:49.858Z,0
2017-04-11T03:42:50.545Z,0
2017-04-11T03:43:50.936Z,0
2017-04-11T03:44:51.462Z,0
2017-04-11T03:45:51.996Z,0
2017-04-11T03:46:52.527Z,0
2017-04-11T03:47:53.062Z,0
2017-04-11T03:48:54.041Z,0
2017-04-11T03:49:54.125Z,0
2017-04-11T03:50:54.655Z,0
2017-04-11T03:51:55.187Z,0
2017-04-11T03:52:55.718Z,0
2017-04-11T03:53:56.247Z,0
2017-04-11T03:54:56.779Z,0
2017-04-11T03:55:57.317Z,0
2017-04-11T03:56:57.878Z,0
2017-04-11T03:57:58.379Z,0
2017-04-11T03:58:58.907Z,0
2017-04-11T03:59:59.438Z,4
2017-04-11T04:00:59.975Z,4
2017-04-11T04:02:00.503Z,0
2017-04-11T04:03:01.036Z,0
2017-04-11T04:04:01.568Z,4
2017-04-11T04:05:02.247Z,4
2017-04-11T04:06:02.640Z,4
2017-04-11T04:07:03.162Z,4
2017-04-11T04:08:03.693Z,8
2017-04-11T04:09:04.253Z,12
2017-04-11T04:10:04.754Z,16
2017-04-11T04:11:05.288Z,16
2017-04-11T04:12:05.967Z,20
2017-04-11T04:13:06.350Z,24
2017-04-11T04:14:06.881Z,32
2017-04-11T04:15:07.406Z,36
2017-04-11T04:16:07.950Z,40
2017-04-11T04:17:08.475Z,52
2017-04-11T04:18:09.008Z,60
2017-04-11T04:19:09.536Z,72
2017-04-11T04:20:10.067Z,88
2017-04-11T04:21:10.599Z,112
2017-04-11T04:22:11.136Z,140
2017-04-11T04:23:11.818Z,164
2017-04-11T04:24:12.205Z,188
2017-04-11T04:25:12.742Z,212
2017-04-11T04:26:13.271Z,236
2017-04-11T04:27:13.800Z,272
2017-04-11T04:28:14.337Z,304
2017-04-11T04:29:14.865Z,340
2017-04-11T04:30:15.402Z,372
2017-04-11T04:31:15.932Z,404
2017-04-11T04:32:16.466Z,440
2017-04-11T04:33:17.150Z,476
2017-04-11T04:34:17.529Z,516
2017-04-11T04:35:18.060Z,556
2017-04-11T04:36:18.594Z,608
2017-04-11T04:37:19.120Z,668
2017-04-11T04:38:19.656Z,728
2017-04-11T04:39:20.188Z,788
2017-04-11T04:40:20.719Z,852
2017-04-11T04:41:21.399Z,924
2017-04-11T04:42:21.782Z,996
2017-04-11T04:43:22.313Z,1060
2017-04-11T04:44:22.846Z,1132
2017-04-11T04:45:23.525Z,1204
2017-04-11T04:46:23.911Z,1272
2017-04-11T04:47:24.441Z,1332
2017-04-11T04:48:24.976Z,1392
2017-04-11T04:49:25.502Z,1456
2017-04-11T04:50:26.040Z,1528
2017-04-11T04:51:26.718Z,1604
2017-04-11T04:52:27.102Z,1684
2017-04-11T04:53:27.634Z,1764
2017-04-11T04:54:28.168Z,1848
2017-04-11T04:55:28.690Z,1952
2017-04-11T04:56:29.225Z,2064
2017-04-11T04:57:29.759Z,2164
2017-04-11T04:58:30.290Z,2256
2017-04-11T04:59:30.838Z,2352
2017-04-11T05:00:31.356Z,2440
2017-04-11T05:01:31.884Z,2548
2017-04-11T05:02:32.425Z,2652
2017-04-11T05:03:32.978Z,2784
2017-04-11T05:04:33.485Z,2896
2017-04-11T05:05:34.021Z,3012
2017-04-11T05:06:34.553Z,3092
2017-04-11T05:07:35.083Z,3124
2017-04-11T05:08:35.621Z,3184
2017-04-11T05:09:36.162Z,3272
2017-04-11T05:10:36.685Z,3400
2017-04-11T05:11:37.215Z,3516
2017-04-11T05:12:37.743Z,3636
2017-04-11T05:13:38.274Z,3732
2017-04-11T05:14:38.807Z,3856
2017-04-11T05:15:39.340Z,3980
2017-04-11T05:16:39.868Z,4100
2017-04-11T05:17:40.399Z,4152
2017-04-11T05:18:40.930Z,4212
2017-04-11T05:19:41.610Z,4360
2017-04-11T05:20:42.005Z,4504
2017-04-11T05:21:42.523Z,4772
2017-04-11T05:22:43.060Z,4984
2017-04-11T05:23:43.636Z,5216
2017-04-11T05:24:44.117Z,5552
2017-04-11T05:25:44.650Z,5896
2017-04-11T05:26:45.180Z,6096
2017-04-11T05:27:45.713Z,6200
2017-04-11T05:28:46.246Z,6360
2017-04-11T05:29:47.109Z,6660
2017-04-11T05:30:47.308Z,6940
2017-04-11T05:31:47.837Z,7192
2017-04-11T05:32:48.369Z,7476
2017-04-11T05:33:48.907Z,7768
2017-04-11T05:34:49.436Z,8112
2017-04-11T05:35:49.964Z,8332
2017-04-11T05:36:50.492Z,8280
2017-04-11T05:37:51.025Z,8380
2017-04-11T05:38:51.561Z,8348
2017-04-11T05:39:52.087Z,8204
2017-04-11T05:40:52.630Z,8184
2017-04-11T05:41:53.157Z,8128
2017-04-11T05:42:53.690Z,8144
2017-04-11T05:43:54.231Z,8060
2017-04-11T05:44:54.757Z,7920
2017-04-11T05:45:55.300Z,7640
2017-04-11T05:46:55.834Z,7360
2017-04-11T05:47:56.367Z,7112
2017-04-11T05:48:56.901Z,6940
2017-04-11T05:49:57.429Z,6596
2017-04-11T05:50:57.966Z,6308
2017-04-11T05:51:58.490Z,6140
2017-04-11T05:52:59.018Z,6196
2017-04-11T05:53:59.567Z,6512
2017-04-11T05:55:00.082Z,6720
2017-04-11T05:56:00.608Z,7864
2017-04-11T05:57:01.142Z,9904
2017-04-11T05:58:01.675Z,11724
2017-04-11T05:59:02.205Z,12108
2017-04-11T06:00:02.734Z,12856
2017-04-11T06:01:03.412Z,13636
2017-04-11T06:02:03.830Z,14456
2017-04-11T06:03:04.335Z,14664
2017-04-11T06:04:04.861Z,14672
2017-04-11T06:05:05.394Z,14660
2017-04-11T06:06:05.923Z,14848
2017-04-11T06:07:06.461Z,15440
2017-04-11T06:08:06.989Z,15968
2017-04-11T06:09:07.525Z,15916
2017-04-11T06:10:08.059Z,16256
2017-04-11T06:11:08.582Z,16344
2017-04-11T06:12:09.111Z,16688
2017-04-11T06:13:09.642Z,17432
2017-04-11T06:14:10.176Z,17868
2017-04-11T06:16:11.246Z,18272
2017-04-11T06:17:11.770Z,19352
2017-04-11T06:18:12.297Z,19556
2017-04-11T06:19:12.831Z,18948
2017-04-11T06:20:13.507Z,18572
2017-04-11T06:21:13.892Z,18784
2017-04-11T06:22:14.445Z,18848
2017-04-11T06:23:14.957Z,18484
2017-04-11T06:24:15.491Z,18592
2017-04-11T06:25:16.028Z,19632
2017-04-11T06:26:16.713Z,21472
2017-04-11T06:27:17.100Z,24320
2017-04-11T06:28:17.633Z,26560
2017-04-11T06:29:18.171Z,22336
2017-04-11T06:30:18.704Z,24096
2017-04-11T06:32:19.768Z,43040
2017-04-11T06:33:20.303Z,44128
2017-04-11T06:34:20.830Z,31584
2017-04-11T06:35:21.521Z,31968
2017-04-11T06:36:21.900Z,40512
2017-04-11T06:37:22.427Z,45696
2017-04-11T06:38:23.107Z,47040
2017-04-11T06:39:23.494Z,47872
2017-04-11T06:40:24.023Z,48192
2017-04-11T06:41:24.699Z,48384
2017-04-11T06:42:25.082Z,49632
2017-04-11T06:44:26.146Z,48064
2017-04-11T06:45:26.679Z,50784
2017-04-11T06:46:27.209Z,50976
2017-04-11T06:47:27.741Z,42336
2017-04-11T06:48:28.275Z,48128
2017-04-11T06:50:29.337Z,49920
2017-04-11T06:51:29.867Z,51616
2017-04-11T06:52:30.398Z,53760
2017-04-11T06:53:30.931Z,56288
2017-04-11T06:54:31.459Z,58816
2017-04-11T06:55:31.991Z,60192
2017-04-11T06:56:32.526Z,61408
2017-04-11T06:57:33.198Z,62080
2017-04-11T06:58:33.731Z,59264
2017-04-11T06:59:34.112Z,58784
2017-04-11T07:00:34.651Z,55264
2017-04-11T07:01:35.178Z,53312
2017-04-11T07:02:35.709Z,53152
2017-04-11T07:03:36.245Z,55904
2017-04-11T07:04:36.772Z,58464
2017-04-11T07:05:37.324Z,60896
2017-04-11T07:06:37.990Z,62720
2017-04-11T07:07:38.375Z,63072
2017-04-11T07:09:39.443Z,64800
2017-04-11T07:10:39.975Z,66112
2017-04-11T07:11:40.509Z,66080
2017-04-11T07:12:41.049Z,65888
2017-04-11T07:13:41.568Z,64896
2017-04-11T07:14:42.250Z,64832
2017-04-11T07:15:42.639Z,64800
2017-04-11T07:16:43.318Z,64608
2017-04-11T07:17:43.697Z,64032
2017-04-11T07:18:44.376Z,64352
2017-04-11T07:19:44.906Z,62720
2017-04-11T07:20:45.289Z,61312
2017-04-11T07:21:45.819Z,70656
2017-04-11T07:22:46.498Z,67552
2017-04-11T07:23:46.880Z,71040
2017-04-11T07:24:47.557Z,75360
2017-04-11T07:25:47.943Z,64576
2017-04-11T07:26:48.623Z,58208
2017-04-11T07:27:49.005Z,59808
2017-04-11T07:28:49.535Z,57056
2017-04-11T07:29:50.063Z,62208
2017-04-11T07:30:50.632Z,71456
2017-04-11T07:31:51.128Z,75584
2017-04-11T07:32:51.659Z,50080
2017-04-11T07:33:52.187Z,47872
2017-04-11T07:34:52.716Z,51744
2017-04-11T07:35:53.250Z,39936
2017-04-11T07:36:53.932Z,70528
2017-04-11T07:37:54.315Z,49920
2017-04-11T07:38:54.849Z,66496
2017-04-11T07:39:55.374Z,61280
2017-04-11T07:40:55.943Z,61984
2017-04-11T07:41:56.437Z,66048
2017-04-11T07:42:56.965Z,66560
2017-04-11T07:43:57.497Z,70880
2017-04-11T07:44:58.028Z,69472
2017-04-11T07:45:58.557Z,75840
2017-04-11T07:46:59.088Z,78400
2017-04-11T07:47:59.628Z,67008
2017-04-11T07:49:00.161Z,80352
2017-04-11T07:50:00.692Z,54528
2017-04-11T07:51:01.376Z,37952
2017-04-11T07:52:01.757Z,61984
2017-04-11T07:53:02.285Z,76384
2017-04-11T07:54:02.815Z,70912
2017-04-11T07:55:03.377Z,71328
2017-04-11T07:56:03.881Z,68096
2017-04-11T07:57:04.415Z,72736
2017-04-11T07:58:04.947Z,71008
2017-04-11T07:59:05.473Z,74048
2017-04-11T08:00:06.002Z,65248
2017-04-11T08:01:06.537Z,74560
2017-04-11T08:02:07.070Z,81216
2017-04-11T08:03:07.599Z,64960
2017-04-11T08:04:08.128Z,76512
2017-04-11T08:05:08.657Z,74048
2017-04-11T08:06:09.191Z,71392
2017-04-11T08:07:09.722Z,50176
2017-04-11T08:08:10.251Z,59904
2017-04-11T08:09:10.781Z,71424
2017-04-11T08:10:11.315Z,72928
2017-04-11T08:11:11.845Z,79040
2017-04-11T08:12:12.384Z,81568
2017-04-11T08:13:12.907Z,82560
2017-04-11T08:14:13.439Z,82784
2017-04-11T08:15:13.969Z,66336
2017-04-11T08:16:14.506Z,81504
2017-04-11T08:17:15.038Z,76992
2017-04-11T08:18:15.567Z,80832
2017-04-11T08:19:16.095Z,83360
2017-04-11T08:20:16.624Z,84832
2017-04-11T08:21:17.157Z,88160
2017-04-11T08:23:18.225Z,95968
2017-04-11T08:24:18.754Z,93056
2017-04-11T08:25:19.293Z,79104
2017-04-11T08:26:19.817Z,58688
2017-04-11T08:27:20.352Z,97344
2017-04-11T08:28:20.885Z,101152
2017-04-11T08:29:21.432Z,109184
2017-04-11T08:30:21.959Z,112896
2017-04-11T08:31:22.489Z,77280
2017-04-11T08:32:23.027Z,65152
2017-04-11T08:33:23.696Z,65280
2017-04-11T08:34:24.076Z,95936
2017-04-11T08:35:24.608Z,74464
2017-04-11T08:36:25.138Z,57280
2017-04-11T08:37:25.672Z,66368
2017-04-11T08:38:26.204Z,74784
2017-04-11T08:39:27.006Z,85344
2017-04-11T08:40:27.269Z,74176
2017-04-11T08:41:27.789Z,92608
2017-04-11T08:42:28.347Z,73856
2017-04-11T08:43:28.857Z,110176
2017-04-11T08:44:29.387Z,68320
2017-04-11T08:45:29.915Z,60576
2017-04-11T08:46:30.447Z,82432
2017-04-11T08:47:30.989Z,49664
2017-04-11T08:48:31.520Z,58688
2017-04-11T08:49:32.043Z,70080
2017-04-11T08:50:32.575Z,57696
2017-04-11T08:51:33.114Z,62688
2017-04-11T08:52:33.638Z,79552
2017-04-11T08:53:34.175Z,96352
2017-04-11T08:54:34.700Z,79456
2017-04-11T08:55:35.224Z,77152
2017-04-11T08:56:35.757Z,62848
2017-04-11T08:57:36.304Z,64288
2017-04-11T08:58:36.820Z,63808
2017-04-11T08:59:37.387Z,85760
2017-04-11T09:00:37.884Z,75072
2017-04-11T09:01:38.412Z,74240
2017-04-11T09:02:38.945Z,69408
2017-04-11T09:03:39.511Z,88768
2017-04-11T09:04:40.011Z,81920
2017-04-11T09:05:40.537Z,69280
2017-04-11T09:06:41.221Z,76128
2017-04-11T09:07:41.612Z,71104
2017-04-11T09:08:42.142Z,66208
2017-04-11T09:09:42.675Z,66720
2017-04-11T09:10:43.355Z,63904
2017-04-11T09:11:43.761Z,64448
2017-04-11T09:12:44.280Z,62880
2017-04-11T09:13:44.808Z,64192
2017-04-11T09:14:45.342Z,76416
2017-04-11T09:15:45.874Z,74400
2017-04-11T09:16:46.399Z,71136
2017-04-11T09:17:46.933Z,73248
2017-04-11T09:18:47.465Z,78528
2017-04-11T09:19:47.991Z,89824
2017-04-11T09:20:48.669Z,80672
2017-04-11T09:21:49.207Z,75392
2017-04-11T09:22:49.580Z,73888
2017-04-11T09:23:50.259Z,77312
2017-04-11T09:24:50.638Z,83072
2017-04-11T09:25:51.169Z,72384
2017-04-11T09:26:51.697Z,71072
2017-04-11T09:27:52.376Z,72576
2017-04-11T09:28:52.756Z,70464
2017-04-11T09:29:53.286Z,70496
2017-04-11T09:30:53.815Z,70880
2017-04-11T09:31:54.350Z,68640
2017-04-11T09:32:54.876Z,65600
2017-04-11T09:33:55.416Z,62912
2017-04-11T09:34:55.946Z,62560
2017-04-11T09:35:56.471Z,62080
2017-04-11T09:36:57.002Z,62752
2017-04-11T09:37:57.530Z,64608
2017-04-11T09:38:58.205Z,64768
2017-04-11T09:39:58.591Z,65152
2017-04-11T09:40:59.124Z,64864
2017-04-11T09:41:59.796Z,64000
2017-04-11T09:43:00.176Z,61504
2017-04-11T09:44:00.705Z,60032
2017-04-11T09:45:01.237Z,58496
2017-04-11T09:46:01.768Z,58176
2017-04-11T09:47:02.306Z,57856
2017-04-11T09:48:02.861Z,62016
2017-04-11T09:49:03.367Z,70752
2017-04-11T09:50:03.901Z,80928
2017-04-11T09:51:04.434Z,86496
2017-04-11T09:52:04.971Z,93056
2017-04-11T09:53:05.505Z,77728
2017-04-11T09:54:06.033Z,86560
2017-04-11T09:55:06.566Z,85600
2017-04-11T09:56:07.102Z,82784
2017-04-11T09:57:07.633Z,87680
2017-04-11T09:58:08.310Z,76608
2017-04-11T09:59:08.745Z,73056
2017-04-11T10:00:09.218Z,68448
2017-04-11T10:01:09.752Z,65152
2017-04-11T10:02:10.430Z,67392
2017-04-11T10:03:10.815Z,90272
2017-04-11T10:04:11.343Z,107136
2017-04-11T10:05:11.875Z,87200
2017-04-11T10:06:12.411Z,96576
2017-04-11T10:07:12.937Z,86528
2017-04-11T10:08:13.471Z,90400
2017-04-11T10:09:14.002Z,88224
2017-04-11T10:10:14.530Z,79232
2017-04-11T10:11:15.064Z,92832
2017-04-11T10:12:15.591Z,129632
2017-04-11T10:13:16.127Z,132960
2017-04-11T10:14:16.805Z,116000
2017-04-11T10:15:17.189Z,96352
2017-04-11T10:16:17.869Z,120256
2017-04-11T10:17:18.249Z,133184
2017-04-11T10:18:18.778Z,124672
2017-04-11T10:19:19.308Z,118784
2017-04-11T10:20:19.840Z,120832
2017-04-11T10:21:20.376Z,95936
2017-04-11T10:22:20.916Z,137664
2017-04-11T10:23:21.430Z,91264
2017-04-11T10:24:21.972Z,123872
2017-04-11T10:25:22.498Z,119648
2017-04-11T10:26:23.023Z,122144
2017-04-11T10:27:23.552Z,108800
2017-04-11T10:28:24.080Z,116288
2017-04-11T10:29:24.613Z,108192
2017-04-11T10:30:25.147Z,115008
2017-04-11T10:31:25.681Z,112288
2017-04-11T10:32:26.222Z,115776
2017-04-11T10:33:26.754Z,120032
2017-04-11T10:34:27.285Z,119168
2017-04-11T10:35:27.821Z,117696
2017-04-11T10:36:28.349Z,117664
2017-04-11T10:37:28.882Z,115168
2017-04-11T10:38:29.418Z,110720
2017-04-11T10:39:29.940Z,117888
2017-04-11T10:40:30.471Z,123328
2017-04-11T10:41:31.002Z,125632
2017-04-11T10:42:31.529Z,124288
2017-04-11T10:43:32.060Z,121536
2017-04-11T10:44:32.593Z,108480
2017-04-11T10:45:33.123Z,118272
2017-04-11T10:46:33.657Z,121152
2017-04-11T10:47:34.331Z,125408
2017-04-11T10:48:34.715Z,131136
2017-04-11T10:49:35.247Z,134976
2017-04-11T10:50:35.779Z,133728
2017-04-11T10:51:36.321Z,131872
2017-04-11T10:52:36.994Z,132160
2017-04-11T10:53:37.375Z,130912
2017-04-11T10:54:37.908Z,132544
2017-04-11T10:55:38.443Z,133248
2017-04-11T10:56:38.968Z,137152
2017-04-11T10:57:39.506Z,136832
2017-04-11T10:58:40.034Z,136448
2017-04-11T10:59:40.569Z,90592
2017-04-11T11:00:41.098Z,131200
2017-04-11T11:01:41.629Z,129216
2017-04-11T11:02:42.169Z,128800
2017-04-11T11:03:42.693Z,118240
2017-04-11T11:04:43.220Z,40480
2017-04-11T11:05:43.755Z,131392
2017-04-11T11:06:44.283Z,136320
2017-04-11T11:07:44.813Z,143264
2017-04-11T11:08:45.339Z,136480
2017-04-11T11:09:45.877Z,140192
2017-04-11T11:10:46.406Z,149024
2017-04-11T11:11:46.938Z,159232
2017-04-11T11:12:47.468Z,161248
2017-04-11T11:13:48.013Z,151488
2017-04-11T11:14:48.574Z,61760
2017-04-11T11:15:49.075Z,121184
2017-04-11T11:16:49.755Z,65920
2017-04-11T11:17:50.138Z,121696
2017-04-11T11:18:50.685Z,104224
2017-04-11T11:19:51.199Z,52352
2017-04-11T11:20:51.730Z,47808
2017-04-11T11:21:52.267Z,118528
2017-04-11T11:22:52.790Z,45472
2017-04-11T11:23:53.320Z,94464
2017-04-11T11:24:53.859Z,92864
2017-04-11T11:25:54.382Z,90976
2017-04-11T11:26:54.948Z,70624
2017-04-11T11:27:55.452Z,116960
2017-04-11T11:28:55.969Z,148160
2017-04-11T11:29:56.509Z,97536
2017-04-11T11:30:57.038Z,70144
2017-04-11T11:31:57.564Z,71712
2017-04-11T11:32:58.109Z,78848
2017-04-11T11:33:58.629Z,74720
2017-04-11T11:34:59.164Z,134624
2017-04-11T11:35:59.688Z,140352
2017-04-11T11:37:00.365Z,141440
2017-04-11T11:38:00.745Z,127104
2017-04-11T11:39:01.278Z,132800
2017-04-11T11:40:01.833Z,49408
2017-04-11T11:41:02.331Z,49536
2017-04-11T11:42:02.869Z,148064
2017-04-11T11:43:03.399Z,135680
2017-04-11T11:44:03.930Z,119424
2017-04-11T11:45:04.613Z,118240
2017-04-11T11:46:04.998Z,114400
2017-04-11T11:47:05.521Z,147136
2017-04-11T11:48:06.054Z,145408
2017-04-11T11:49:06.581Z,130656
2017-04-11T11:50:07.112Z,125184
2017-04-11T11:51:07.645Z,48192
2017-04-11T11:52:08.181Z,109696
2017-04-11T11:53:08.713Z,119456
2017-04-11T11:54:09.250Z,116928
2017-04-11T11:55:09.786Z,122720
2017-04-11T11:56:10.319Z,124928
2017-04-11T11:57:10.853Z,127488
2017-04-11T11:58:11.389Z,124992
2017-04-11T11:59:12.062Z,122528
2017-04-11T12:00:12.447Z,123104
2017-04-11T12:01:12.977Z,120160
2017-04-11T12:02:13.512Z,82656
2017-04-11T12:03:14.042Z,104480
2017-04-11T12:04:14.568Z,109120
2017-04-11T12:05:15.098Z,85152
2017-04-11T12:06:15.630Z,107040
2017-04-11T12:07:16.156Z,119104
2017-04-11T12:08:16.687Z,72448
2017-04-11T12:09:17.218Z,60928
2017-04-11T12:10:17.747Z,63328
2017-04-11T12:11:18.277Z,77696
2017-04-11T12:12:18.812Z,105568
2017-04-11T12:13:19.351Z,125568
2017-04-11T12:14:19.873Z,140032
2017-04-11T12:15:20.409Z,137664
2017-04-11T12:16:21.118Z,136064
2017-04-11T12:17:21.466Z,140000
2017-04-11T12:18:21.996Z,140512
2017-04-11T12:19:22.676Z,132640
2017-04-11T12:20:23.056Z,126880
2017-04-11T12:21:23.588Z,98848
2017-04-11T12:22:24.117Z,64896
2017-04-11T12:23:24.646Z,47808
2017-04-11T12:24:25.177Z,126080
2017-04-11T12:25:25.718Z,115424
2017-04-11T12:26:26.242Z,91776
2017-04-11T12:27:26.770Z,125344
2017-04-11T12:28:27.300Z,122272
2017-04-11T12:29:27.829Z,122464
2017-04-11T12:30:28.360Z,122304
2017-04-11T12:31:29.041Z,122208
2017-04-11T12:32:29.431Z,122592
2017-04-11T12:33:29.960Z,126304
2017-04-11T12:34:30.488Z,112256
2017-04-11T12:35:31.174Z,115840
2017-04-11T12:36:31.707Z,50208
2017-04-11T12:37:32.090Z,39200
2017-04-11T12:38:32.623Z,124224
2017-04-11T12:39:33.153Z,120000
2017-04-11T12:40:33.686Z,123264
2017-04-11T12:41:34.216Z,42208
2017-04-11T12:42:34.752Z,61920
2017-04-11T12:43:35.285Z,126240
2017-04-11T12:44:35.815Z,120384
2017-04-11T12:45:36.357Z,118016
2017-04-11T12:46:36.876Z,35648
2017-04-11T12:47:37.558Z,41408
2017-04-11T12:48:37.951Z,126944
2017-04-11T12:49:38.472Z,51488
2017-04-11T12:50:39.005Z,49792
2017-04-11T12:51:39.534Z,100640
2017-04-11T12:52:40.067Z,125216
2017-04-11T12:53:40.599Z,47040
2017-04-11T12:54:41.127Z,128800
2017-04-11T12:55:41.659Z,128608
2017-04-11T12:56:42.190Z,132064
2017-04-11T12:57:42.756Z,115808
2017-04-11T12:58:43.252Z,127584
2017-04-11T12:59:43.793Z,126176
2017-04-11T13:00:44.357Z,127616
2017-04-11T13:01:44.851Z,126528
2017-04-11T13:02:45.379Z,125120
2017-04-11T13:03:45.913Z,88640
2017-04-11T13:04:46.444Z,60256
2017-04-11T13:05:46.967Z,69248
2017-04-11T13:06:47.498Z,69344
2017-04-11T13:07:48.031Z,90112
2017-04-11T13:08:48.557Z,72576
2017-04-11T13:09:49.101Z,63456
2017-04-11T13:10:49.624Z,101376
2017-04-11T13:11:50.154Z,63968
2017-04-11T13:12:50.685Z,58272
2017-04-11T13:13:51.228Z,59168
2017-04-11T13:14:51.761Z,63392
2017-04-11T13:15:52.299Z,82816
2017-04-11T13:16:52.823Z,65952
2017-04-11T13:17:53.364Z,65152
2017-04-11T13:18:53.891Z,63904
2017-04-11T13:19:54.421Z,54816
2017-04-11T13:20:55.100Z,55232
2017-04-11T13:21:55.482Z,55328
2017-04-11T13:22:56.011Z,54208
2017-04-11T13:23:56.694Z,52448
2017-04-11T13:24:57.078Z,52992
2017-04-11T13:25:57.600Z,54880
2017-04-11T13:26:58.133Z,57504
2017-04-11T13:27:58.667Z,85248
2017-04-11T13:28:59.197Z,59488
2017-04-11T13:29:59.730Z,54624
2017-04-11T13:31:00.264Z,55104
2017-04-11T13:32:00.946Z,54880
2017-04-11T13:33:01.325Z,53504
2017-04-11T13:34:01.862Z,53344
2017-04-11T13:35:02.394Z,51552
2017-04-11T13:36:02.918Z,51904
2017-04-11T13:37:03.450Z,53632
2017-04-11T13:38:03.979Z,58272
2017-04-11T13:39:04.514Z,64128